sensor_id;sensor_type;location;lat;lon;timestamp;pressure;altitude;pressure_sealevel;temperature;humidity
44297;BME280;51842;47.450;8.654;2024-03-02T00:00:15;94382.09;;;2.94;100.00
44297;BME280;51842;47.450;8.654;2024-03-02T00:02:45;94385.06;;;2.98;100.00
44297;BME280;51842;47.450;8.654;2024-03-02T00:05:15;94376.34;;;2.97;100.00
44297;BME280;51842;47.450;8.654;2024-03-02T00:10:27;94383.59;;;2.85;100.00
44297;BME280;51842;47.450;8.654;2024-03-02T00:12:57;94374.59;;;2.81;100.00
44297;BME280;51842;47.450;8.654;2024-03-02T00:15:55;94373.50;;;2.77;100.00
44297;BME280;51842;47.450;8.654;2024-03-02T00:18:36;94380.28;;;2.73;100.00
44297;BME280;51842;47.450;8.654;2024-03-02T00:21:03;94384.38;;;2.64;100.00
44297;BME280;51842;47.450;8.654;2024-03-02T00:23:32;94382.59;;;2.69;100.00
44297;BME280;51842;47.450;8.654;2024-03-02T00:25:59;94380.28;;;2.73;100.00
44297;BME280;51842;47.450;8.654;2024-03-02T00:28:36;94373.69;;;2.70;100.00
44297;BME280;51842;47.450;8.654;2024-03-02T00:31:08;94385.47;;;2.68;100.00
44297;BME280;51842;47.450;8.654;2024-03-02T00:33:43;94392.28;;;2.64;100.00
44297;BME280;51842;47.450;8.654;2024-03-02T00:36:12;94390.94;;;2.61;100.00
44297;BME280;51842;47.450;8.654;2024-03-02T00:38:54;94389.34;;;2.60;100.00
44297;BME280;51842;47.450;8.654;2024-03-02T00:41:30;94388.00;;;2.58;100.00
44297;BME280;51842;47.450;8.654;2024-03-02T00:44:05;94393.91;;;2.48;100.00
44297;BME280;51842;47.450;8.654;2024-03-02T00:46:40;94396.84;;;2.51;100.00
44297;BME280;51842;47.450;8.654;2024-03-02T00:49:24;94398.44;;;2.52;100.00
44297;BME280;51842;47.450;8.654;2024-03-02T00:51:54;94397.88;;;2.50;100.00
44297;BME280;51842;47.450;8.654;2024-03-02T00:54:25;94401.84;;;2.53;100.00
44297;BME280;51842;47.450;8.654;2024-03-02T00:56:55;94403.69;;;2.52;100.00
44297;BME280;51842;47.450;8.654;2024-03-02T00:59:23;94410.00;;;2.51;100.00
44297;BME280;51842;47.450;8.654;2024-03-02T01:01:49;94405.22;;;2.48;100.00
44297;BME280;51842;47.450;8.654;2024-03-02T01:04:16;94408.31;;;2.45;100.00
44297;BME280;51842;47.450;8.654;2024-03-02T01:06:44;94404.34;;;2.43;100.00
44297;BME280;51842;47.450;8.654;2024-03-02T01:09:11;94407.16;;;2.36;100.00
44297;BME280;51842;47.450;8.654;2024-03-02T01:11:38;94400.44;;;2.28;100.00
44297;BME280;51842;47.450;8.654;2024-03-02T01:14:04;94397.22;;;2.21;100.00
44297;BME280;51842;47.450;8.654;2024-03-02T01:16:30;94399.53;;;2.18;100.00
44297;BME280;51842;47.450;8.654;2024-03-02T01:18:56;94401.75;;;2.09;100.00
44297;BME280;51842;47.450;8.654;2024-03-02T01:21:21;94396.03;;;2.12;100.00
44297;BME280;51842;47.450;8.654;2024-03-02T01:23:47;94397.06;;;2.11;100.00
44297;BME280;51842;47.450;8.654;2024-03-02T01:26:13;94403.38;;;2.10;100.00
44297;BME280;51842;47.450;8.654;2024-03-02T01:28:39;94409.09;;;2.07;100.00
44297;BME280;51842;47.450;8.654;2024-03-02T01:31:05;94405.66;;;2.06;100.00
44297;BME280;51842;47.450;8.654;2024-03-02T01:33:30;94404.06;;;2.05;100.00
44297;BME280;51842;47.450;8.654;2024-03-02T01:35:56;94402.97;;;2.01;100.00
44297;BME280;51842;47.450;8.654;2024-03-02T01:38:22;94401.13;;;2.02;100.00
44297;BME280;51842;47.450;8.654;2024-03-02T01:40:48;94404.53;;;2.02;100.00
44297;BME280;51842;47.450;8.654;2024-03-02T01:43:14;94407.16;;;2.02;100.00
44297;BME280;51842;47.450;8.654;2024-03-02T01:45:40;94397.16;;;1.99;100.00
44297;BME280;51842;47.450;8.654;2024-03-02T01:48:07;94403.44;;;1.98;100.00
44297;BME280;51842;47.450;8.654;2024-03-02T01:50:34;94410.44;;;1.93;100.00
44297;BME280;51842;47.450;8.654;2024-03-02T01:53:01;94410.19;;;1.94;100.00
44297;BME280;51842;47.450;8.654;2024-03-02T01:55:30;94412.81;;;1.94;100.00
44297;BME280;51842;47.450;8.654;2024-03-02T01:57:56;94401.78;;;1.92;100.00
44297;BME280;51842;47.450;8.654;2024-03-02T02:00:23;94403.81;;;1.90;100.00
44297;BME280;51842;47.450;8.654;2024-03-02T02:02:53;94403.28;;;1.88;100.00
44297;BME280;51842;47.450;8.654;2024-03-02T02:05:19;94409.56;;;1.87;100.00
44297;BME280;51842;47.450;8.654;2024-03-02T02:07:45;94411.56;;;1.80;100.00
44297;BME280;51842;47.450;8.654;2024-03-02T02:10:11;94405.72;;;1.78;100.00
44297;BME280;51842;47.450;8.654;2024-03-02T02:12:37;94411.06;;;1.83;100.00
44297;BME280;51842;47.450;8.654;2024-03-02T02:15:29;94407.97;;;1.86;100.00
44297;BME280;51842;47.450;8.654;2024-03-02T02:17:57;94415.06;;;1.85;100.00
44297;BME280;51842;47.450;8.654;2024-03-02T02:20:24;94418.63;;;1.79;100.00
44297;BME280;51842;47.450;8.654;2024-03-02T02:23:05;94412.25;;;1.75;100.00
44297;BME280;51842;47.450;8.654;2024-03-02T02:25:33;94406.16;;;1.70;100.00
44297;BME280;51842;47.450;8.654;2024-03-02T02:27:59;94401.38;;;1.67;100.00
44297;BME280;51842;47.450;8.654;2024-03-02T02:30:30;94400.78;;;1.65;100.00
44297;BME280;51842;47.450;8.654;2024-03-02T02:32:57;94403.66;;;1.63;100.00
44297;BME280;51842;47.450;8.654;2024-03-02T02:35:23;94395.69;;;1.58;100.00
44297;BME280;51842;47.450;8.654;2024-03-02T02:37:55;94391.81;;;1.60;100.00
44297;BME280;51842;47.450;8.654;2024-03-02T02:40:23;94392.13;;;1.64;100.00
44297;BME280;51842;47.450;8.654;2024-03-02T02:42:49;94386.31;;;1.62;100.00
44297;BME280;51842;47.450;8.654;2024-03-02T02:45:15;94384.56;;;1.68;100.00
44297;BME280;51842;47.450;8.654;2024-03-02T02:47:42;94377.56;;;1.73;100.00
44297;BME280;51842;47.450;8.654;2024-03-02T02:50:09;94380.75;;;1.75;100.00
44297;BME280;51842;47.450;8.654;2024-03-02T02:52:38;94374.38;;;1.71;100.00
44297;BME280;51842;47.450;8.654;2024-03-02T02:55:11;94374.88;;;1.68;100.00
44297;BME280;51842;47.450;8.654;2024-03-02T02:57:41;94363.81;;;1.66;100.00
44297;BME280;51842;47.450;8.654;2024-03-02T03:00:15;94362.22;;;1.65;100.00
44297;BME280;51842;47.450;8.654;2024-03-02T03:02:43;94362.69;;;1.62;100.00
44297;BME280;51842;47.450;8.654;2024-03-02T03:05:13;94359.59;;;1.65;100.00
44297;BME280;51842;47.450;8.654;2024-03-02T03:07:43;94360.63;;;1.64;100.00
44297;BME280;51842;47.450;8.654;2024-03-02T03:10:10;94366.66;;;1.65;100.00
44297;BME280;51842;47.450;8.654;2024-03-02T03:12:36;94363.56;;;1.68;100.00
44297;BME280;51842;47.450;8.654;2024-03-02T03:15:04;94361.25;;;1.71;100.00
44297;BME280;51842;47.450;8.654;2024-03-02T03:17:30;94372.06;;;1.75;100.00
44297;BME280;51842;47.450;8.654;2024-03-02T03:19:56;94362.63;;;1.74;100.00
44297;BME280;51842;47.450;8.654;2024-03-02T03:22:22;94366.59;;;1.76;100.00
44297;BME280;51842;47.450;8.654;2024-03-02T03:24:48;94365.56;;;1.77;100.00
44297;BME280;51842;47.450;8.654;2024-03-02T03:27:14;94362.72;;;1.79;100.00
44297;BME280;51842;47.450;8.654;2024-03-02T03:29:39;94356.88;;;1.77;100.00
44297;BME280;51842;47.450;8.654;2024-03-02T03:32:06;94360.31;;;1.77;100.00
44297;BME280;51842;47.450;8.654;2024-03-02T03:34:36;94364.50;;;1.78;100.00
44297;BME280;51842;47.450;8.654;2024-03-02T03:37:03;94361.66;;;1.80;100.00
44297;BME280;51842;47.450;8.654;2024-03-02T03:39:29;94359.34;;;1.83;100.00
44297;BME280;51842;47.450;8.654;2024-03-02T03:41:55;94367.31;;;1.89;100.00
44297;BME280;51842;47.450;8.654;2024-03-02T03:44:21;94372.88;;;1.92;100.00
44297;BME280;51842;47.450;8.654;2024-03-02T03:46:47;94369.78;;;1.95;100.00
44297;BME280;51842;47.450;8.654;2024-03-02T03:49:12;94369.03;;;2.00;100.00
44297;BME280;51842;47.450;8.654;2024-03-02T03:51:38;94364.59;;;2.00;100.00
44297;BME280;51842;47.450;8.654;2024-03-02T03:54:04;94369.34;;;2.03;100.00
44297;BME280;51842;47.450;8.654;2024-03-02T03:56:30;94374.88;;;2.02;100.00
44297;BME280;51842;47.450;8.654;2024-03-02T03:58:56;94371.44;;;2.01;100.00
44297;BME280;51842;47.450;8.654;2024-03-02T04:01:21;94368.56;;;2.03;100.00
44297;BME280;51842;47.450;8.654;2024-03-02T04:03:48;94369.59;;;2.02;100.00
44297;BME280;51842;47.450;8.654;2024-03-02T04:06:14;94375.44;;;2.04;100.00
44297;BME280;51842;47.450;8.654;2024-03-02T04:08:42;94375.66;;;2.02;100.00
44297;BME280;51842;47.450;8.654;2024-03-02T04:11:07;94370.41;;;2.02;100.00
44297;BME280;51842;47.450;8.654;2024-03-02T04:13:34;94367.38;;;1.94;100.00
44297;BME280;51842;47.450;8.654;2024-03-02T04:15:59;94375.81;;;1.96;100.00
44297;BME280;51842;47.450;8.654;2024-03-02T04:18:25;94370.72;;;1.89;100.00
44297;BME280;51842;47.450;8.654;2024-03-02T04:20:51;94373.28;;;1.84;100.00
44297;BME280;51842;47.450;8.654;2024-03-02T04:23:17;94368.75;;;1.79;100.00
44297;BME280;51842;47.450;8.654;2024-03-02T04:25:43;94361.56;;;1.75;100.00
44297;BME280;51842;47.450;8.654;2024-03-02T04:28:08;94368.66;;;1.74;100.00
44297;BME280;51842;47.450;8.654;2024-03-02T04:30:34;94367.06;;;1.73;100.00
44297;BME280;51842;47.450;8.654;2024-03-02T04:33:00;94365.25;;;1.74;100.00
44297;BME280;51842;47.450;8.654;2024-03-02T04:35:27;94365.25;;;1.74;100.00
44297;BME280;51842;47.450;8.654;2024-03-02T04:37:54;94365.00;;;1.75;100.00
44297;BME280;51842;47.450;8.654;2024-03-02T04:40:20;94359.75;;;1.75;100.00
44297;BME280;51842;47.450;8.654;2024-03-02T04:42:46;94363.19;;;1.76;100.00
44297;BME280;51842;47.450;8.654;2024-03-02T04:45:11;94368.66;;;1.74;100.00
44297;BME280;51842;47.450;8.654;2024-03-02T04:47:37;94368.34;;;1.71;100.00
44297;BME280;51842;47.450;8.654;2024-03-02T04:50:04;94369.88;;;1.67;100.00
44297;BME280;51842;47.450;8.654;2024-03-02T04:52:30;94369.53;;;1.63;100.00
44297;BME280;51842;47.450;8.654;2024-03-02T04:54:56;94365.00;;;1.58;100.00
44297;BME280;51842;47.450;8.654;2024-03-02T04:57:40;94375.66;;;1.52;100.00
44297;BME280;51842;47.450;8.654;2024-03-02T05:00:07;94380.00;;;1.46;100.00
44297;BME280;51842;47.450;8.654;2024-03-02T05:02:35;94372.88;;;1.42;100.00
44297;BME280;51842;47.450;8.654;2024-03-02T05:05:01;94378.91;;;1.42;100.00
44297;BME280;51842;47.450;8.654;2024-03-02T05:07:28;94378.00;;;1.36;100.00
44297;BME280;51842;47.450;8.654;2024-03-02T05:09:54;94374.28;;;1.32;100.00
44297;BME280;51842;47.450;8.654;2024-03-02T05:12:19;94378.63;;;1.27;100.00
44297;BME280;51842;47.450;8.654;2024-03-02T05:15:07;94382.19;;;1.21;100.00
44297;BME280;51842;47.450;8.654;2024-03-02T05:17:37;94379.25;;;1.17;100.00
44297;BME280;51842;47.450;8.654;2024-03-02T05:20:08;94387.59;;;1.14;100.00
44297;BME280;51842;47.450;8.654;2024-03-02T05:22:35;94393.78;;;1.08;100.00
44297;BME280;51842;47.450;8.654;2024-03-02T05:25:05;94389.47;;;1.02;100.00
44297;BME280;51842;47.450;8.654;2024-03-02T05:27:32;94389.50;;;0.90;100.00
44297;BME280;51842;47.450;8.654;2024-03-02T05:30:02;94395.31;;;0.92;100.00
44297;BME280;51842;47.450;8.654;2024-03-02T05:32:29;94391.09;;;0.91;100.00
44297;BME280;51842;47.450;8.654;2024-03-02T05:34:55;94393.47;;;0.92;100.00
44297;BME280;51842;47.450;8.654;2024-03-02T05:37:20;94388.59;;;0.84;100.00
44297;BME280;51842;47.450;8.654;2024-03-02T05:39:46;94382.22;;;0.80;100.00
44297;BME280;51842;47.450;8.654;2024-03-02T05:42:12;94377.44;;;0.77;100.00
44297;BME280;51842;47.450;8.654;2024-03-02T05:44:38;94376.47;;;0.66;100.00
44297;BME280;51842;47.450;8.654;2024-03-02T05:47:04;94385.13;;;0.67;100.00
44297;BME280;51842;47.450;8.654;2024-03-02T05:49:30;94389.09;;;0.69;100.00
44297;BME280;51842;47.450;8.654;2024-03-02T05:51:56;94381.31;;;0.75;100.00
44297;BME280;51842;47.450;8.654;2024-03-02T05:54:22;94385.56;;;0.76;100.00
44297;BME280;51842;47.450;8.654;2024-03-02T05:56:48;94386.47;;;0.69;100.00
44297;BME280;51842;47.450;8.654;2024-03-02T05:59:14;94389.56;;;0.66;100.00
44297;BME280;51842;47.450;8.654;2024-03-02T06:01:43;94388.09;;;0.59;100.00
44297;BME280;51842;47.450;8.654;2024-03-02T06:04:10;94391.97;;;0.56;100.00
44297;BME280;51842;47.450;8.654;2024-03-02T06:06:40;94391.09;;;0.51;100.00
44297;BME280;51842;47.450;8.654;2024-03-02T06:09:07;94388.53;;;0.56;100.00
44297;BME280;51842;47.450;8.654;2024-03-02T06:11:38;94390.72;;;0.59;100.00
44297;BME280;51842;47.450;8.654;2024-03-02T06:14:07;94386.16;;;0.54;100.00
44297;BME280;51842;47.450;8.654;2024-03-02T06:16:34;94395.03;;;0.53;100.00
44297;BME280;51842;47.450;8.654;2024-03-02T06:19:00;94394.81;;;0.55;100.00
44297;BME280;51842;47.450;8.654;2024-03-02T06:21:28;94396.97;;;0.58;100.00
44297;BME280;51842;47.450;8.654;2024-03-02T06:23:54;94399.16;;;0.61;100.00
44297;BME280;51842;47.450;8.654;2024-03-02T06:26:20;94396.19;;;0.57;100.00
44297;BME280;51842;47.450;8.654;2024-03-02T06:28:46;94396.97;;;0.58;100.00
44297;BME280;51842;47.450;8.654;2024-03-02T06:31:12;94399.59;;;0.58;100.00
44297;BME280;51842;47.450;8.654;2024-03-02T06:33:38;94398.91;;;0.62;100.00
44297;BME280;51842;47.450;8.654;2024-03-02T06:36:06;94398.69;;;0.64;100.00
44297;BME280;51842;47.450;8.654;2024-03-02T06:38:34;94396.84;;;0.64;100.00
44297;BME280;51842;47.450;8.654;2024-03-02T06:41:00;94395.59;;;0.67;100.00
44297;BME280;51842;47.450;8.654;2024-03-02T06:43:26;94399.47;;;0.64;100.00
44297;BME280;51842;47.450;8.654;2024-03-02T06:45:52;94403.47;;;0.67;100.00
44297;BME280;51842;47.450;8.654;2024-03-02T06:48:19;94401.63;;;0.67;100.00
44297;BME280;51842;47.450;8.654;2024-03-02T06:50:50;94397.50;;;0.72;100.00
44297;BME280;51842;47.450;8.654;2024-03-02T06:53:17;94399.13;;;0.73;100.00
44297;BME280;51842;47.450;8.654;2024-03-02T06:55:44;94401.84;;;0.78;100.00
44297;BME280;51842;47.450;8.654;2024-03-02T06:58:15;94393.97;;;0.78;100.00
44297;BME280;51842;47.450;8.654;2024-03-02T07:00:42;94404.31;;;0.84;100.00
44297;BME280;51842;47.450;8.654;2024-03-02T07:03:09;94398.06;;;0.85;100.00
44297;BME280;51842;47.450;8.654;2024-03-02T07:05:35;94400.78;;;0.90;100.00
44297;BME280;51842;47.450;8.654;2024-03-02T07:08:01;94403.50;;;0.96;100.00
44297;BME280;51842;47.450;8.654;2024-03-02T07:10:28;94403.59;;;1.01;100.00
44297;BME280;51842;47.450;8.654;2024-03-02T07:12:54;94399.69;;;1.03;100.00
44297;BME280;51842;47.450;8.654;2024-03-02T07:15:20;94401.06;;;1.06;100.00
44297;BME280;51842;47.450;8.654;2024-03-02T07:18:04;94401.50;;;1.14;100.00
44297;BME280;51842;47.450;8.654;2024-03-02T07:20:30;94401.34;;;1.21;100.00
44297;BME280;51842;47.450;8.654;2024-03-02T07:22:56;94396.53;;;1.30;100.00
44297;BME280;51842;47.450;8.654;2024-03-02T07:25:22;94395.91;;;1.39;100.00
44297;BME280;51842;47.450;8.654;2024-03-02T07:27:48;94392.44;;;1.51;100.00
44297;BME280;51842;47.450;8.654;2024-03-02T07:30:15;94397.59;;;1.62;100.00
44297;BME280;51842;47.450;8.654;2024-03-02T07:32:42;94397.84;;;1.78;100.00
44297;BME280;51842;47.450;8.654;2024-03-02T07:35:14;94392.38;;;1.96;100.00
44297;BME280;51842;47.450;8.654;2024-03-02T07:37:44;94391.72;;;2.23;100.00
44297;BME280;51842;47.450;8.654;2024-03-02T07:40:11;94392.47;;;2.57;100.00
44297;BME280;51842;47.450;8.654;2024-03-02T07:42:40;94393.13;;;2.91;100.00
44297;BME280;51842;47.450;8.654;2024-03-02T07:45:07;94383.19;;;3.20;100.00
44297;BME280;51842;47.450;8.654;2024-03-02T07:47:34;94377.19;;;3.52;100.00
44297;BME280;51842;47.450;8.654;2024-03-02T07:50:01;94373.78;;;3.84;100.00
44297;BME280;51842;47.450;8.654;2024-03-02T07:52:27;94375.59;;;4.15;100.00
44297;BME280;51842;47.450;8.654;2024-03-02T07:54:52;94382.41;;;4.54;100.00
44297;BME280;51842;47.450;8.654;2024-03-02T07:57:19;94382.06;;;4.98;100.00
44297;BME280;51842;47.450;8.654;2024-03-02T07:59:46;94378.53;;;5.40;100.00
44297;BME280;51842;47.450;8.654;2024-03-02T08:02:13;94382.78;;;5.66;100.00
44297;BME280;51842;47.450;8.654;2024-03-02T08:04:39;94384.91;;;5.85;100.00
44297;BME280;51842;47.450;8.654;2024-03-02T08:07:05;94386.53;;;6.16;100.00
44297;BME280;51842;47.450;8.654;2024-03-02T08:09:31;94382.78;;;6.48;100.00
44297;BME280;51842;47.450;8.654;2024-03-02T08:11:57;94380.13;;;6.58;100.00
44297;BME280;51842;47.450;8.654;2024-03-02T08:14:24;94379.28;;;6.73;100.00
44297;BME280;51842;47.450;8.654;2024-03-02T08:16:50;94377.66;;;6.82;100.00
44297;BME280;51842;47.450;8.654;2024-03-02T08:19:16;94384.50;;;6.99;100.00
44297;BME280;51842;47.450;8.654;2024-03-02T08:21:43;94378.56;;;7.27;100.00
44297;BME280;51842;47.450;8.654;2024-03-02T08:24:10;94374.78;;;7.38;100.00
44297;BME280;51842;47.450;8.654;2024-03-02T08:26:36;94378.13;;;7.59;100.00
44297;BME280;51842;47.450;8.654;2024-03-02T08:29:02;94369.56;;;7.68;100.00
44297;BME280;51842;47.450;8.654;2024-03-02T08:31:30;94379.47;;;7.96;100.00
44297;BME280;51842;47.450;8.654;2024-03-02T08:33:56;94367.34;;;8.19;100.00
44297;BME280;51842;47.450;8.654;2024-03-02T08:36:23;94367.44;;;8.43;100.00
44297;BME280;51842;47.450;8.654;2024-03-02T08:38:50;94357.16;;;8.61;100.00
44297;BME280;51842;47.450;8.654;2024-03-02T08:41:17;94353.72;;;8.84;100.00
44297;BME280;51842;47.450;8.654;2024-03-02T08:43:44;94356.50;;;9.17;100.00
44297;BME280;51842;47.450;8.654;2024-03-02T08:46:10;94350.66;;;9.39;100.00
44297;BME280;51842;47.450;8.654;2024-03-02T08:48:36;94352.38;;;9.67;96.49
44297;BME280;51842;47.450;8.654;2024-03-02T08:51:02;94348.75;;;9.96;97.58
44297;BME280;51842;47.450;8.654;2024-03-02T08:53:30;94340.00;;;9.95;87.76
44297;BME280;51842;47.450;8.654;2024-03-02T08:55:56;94339.88;;;10.19;92.89
44297;BME280;51842;47.450;8.654;2024-03-02T08:58:22;94341.09;;;10.27;90.66
44297;BME280;51842;47.450;8.654;2024-03-02T09:00:48;94344.78;;;10.45;88.18
44297;BME280;51842;47.450;8.654;2024-03-02T09:03:14;94345.28;;;10.47;87.38
44297;BME280;51842;47.450;8.654;2024-03-02T09:05:40;94337.44;;;10.70;86.10
44297;BME280;51842;47.450;8.654;2024-03-02T09:08:06;94343.16;;;10.91;82.89
44297;BME280;51842;47.450;8.654;2024-03-02T09:10:33;94331.41;;;11.05;81.44
44297;BME280;51842;47.450;8.654;2024-03-02T09:12:59;94331.72;;;11.04;80.38
44297;BME280;51842;47.450;8.654;2024-03-02T09:15:25;94325.69;;;10.98;81.66
44297;BME280;51842;47.450;8.654;2024-03-02T09:17:51;94331.31;;;10.83;82.79
44297;BME280;51842;47.450;8.654;2024-03-02T09:20:17;94336.91;;;10.68;83.04
44297;BME280;51842;47.450;8.654;2024-03-02T09:22:42;94330.19;;;10.42;80.25
44297;BME280;51842;47.450;8.654;2024-03-02T09:25:08;94333.19;;;10.22;79.07
44297;BME280;51842;47.450;8.654;2024-03-02T09:27:38;94325.94;;;10.09;80.51
44297;BME280;51842;47.450;8.654;2024-03-02T09:30:08;94324.75;;;10.15;80.02
44297;BME280;51842;47.450;8.654;2024-03-02T09:32:37;94323.84;;;10.06;80.12
44297;BME280;51842;47.450;8.654;2024-03-02T09:35:04;94319.22;;;9.98;79.53
44297;BME280;51842;47.450;8.654;2024-03-02T09:37:29;94324.50;;;10.16;81.66
44297;BME280;51842;47.450;8.654;2024-03-02T09:39:55;94315.78;;;10.11;82.16
44297;BME280;51842;47.450;8.654;2024-03-02T09:42:21;94309.56;;;10.02;82.82
44297;BME280;51842;47.450;8.654;2024-03-02T09:44:48;94299.84;;;10.11;82.87
44297;BME280;51842;47.450;8.654;2024-03-02T09:47:14;94301.53;;;10.20;82.21
44297;BME280;51842;47.450;8.654;2024-03-02T09:49:40;94298.72;;;9.98;82.06
44297;BME280;51842;47.450;8.654;2024-03-02T09:52:07;94302.41;;;10.16;82.39
44297;BME280;51842;47.450;8.654;2024-03-02T09:54:33;94303.78;;;10.13;81.13
44297;BME280;51842;47.450;8.654;2024-03-02T09:56:59;94303.91;;;10.22;81.58
44297;BME280;51842;47.450;8.654;2024-03-02T09:59:27;94304.03;;;9.98;81.40
44297;BME280;51842;47.450;8.654;2024-03-02T10:02:01;94313.50;;;9.53;84.53
44297;BME280;51842;47.450;8.654;2024-03-02T10:04:30;94311.34;;;9.36;85.26
44297;BME280;51842;47.450;8.654;2024-03-02T10:09:41;94303.88;;;9.00;85.85
44297;BME280;51842;47.450;8.654;2024-03-02T10:12:11;94285.38;;;8.90;87.85
44297;BME280;51842;47.450;8.654;2024-03-02T10:14:39;94282.78;;;8.66;91.48
44297;BME280;51842;47.450;8.654;2024-03-02T10:17:11;94283.06;;;8.40;92.08
44297;BME280;51842;47.450;8.654;2024-03-02T10:19:39;94280.63;;;8.44;93.67
44297;BME280;51842;47.450;8.654;2024-03-02T10:22:10;94273.97;;;8.46;94.72
44297;BME280;51842;47.450;8.654;2024-03-02T10:24:42;94277.31;;;8.57;95.31
44297;BME280;51842;47.450;8.654;2024-03-02T10:27:27;94274.47;;;8.72;93.24
44297;BME280;51842;47.450;8.654;2024-03-02T10:29:54;94276.97;;;9.07;94.52
44297;BME280;51842;47.450;8.654;2024-03-02T10:32:23;94286.28;;;9.42;93.46
44297;BME280;51842;47.450;8.654;2024-03-02T10:34:50;94278.66;;;9.54;92.91
44297;BME280;51842;47.450;8.654;2024-03-02T10:37:16;94276.34;;;9.66;89.89
44297;BME280;51842;47.450;8.654;2024-03-02T10:39:47;94271.06;;;9.47;89.14
44297;BME280;51842;47.450;8.654;2024-03-02T10:42:14;94275.38;;;9.43;89.91
44297;BME280;51842;47.450;8.654;2024-03-02T10:44:42;94273.31;;;9.40;89.99
44297;BME280;51842;47.450;8.654;2024-03-02T10:47:09;94278.16;;;9.52;90.04
44297;BME280;51842;47.450;8.654;2024-03-02T10:49:38;94269.78;;;9.07;91.76
44297;BME280;51842;47.450;8.654;2024-03-02T10:52:07;94259.50;;;9.38;93.66
44297;BME280;51842;47.450;8.654;2024-03-02T10:54:34;94253.00;;;9.63;94.11
44297;BME280;51842;47.450;8.654;2024-03-02T10:57:08;94246.88;;;9.95;91.98
44297;BME280;51842;47.450;8.654;2024-03-02T10:59:37;94245.84;;;10.24;87.41
44297;BME280;51842;47.450;8.654;2024-03-02T11:02:14;94230.78;;;10.19;86.92
44297;BME280;51842;47.450;8.654;2024-03-02T11:04:42;94225.09;;;10.26;87.99
44297;BME280;51842;47.450;8.654;2024-03-02T11:07:13;94231.56;;;10.20;85.58
44297;BME280;51842;47.450;8.654;2024-03-02T11:09:57;94232.81;;;10.09;86.36
44297;BME280;51842;47.450;8.654;2024-03-02T11:12:39;94224.56;;;10.10;83.59
44297;BME280;51842;47.450;8.654;2024-03-02T11:15:18;94219.13;;;10.02;85.54
44297;BME280;51842;47.450;8.654;2024-03-02T11:17:48;94225.84;;;10.13;84.83
44297;BME280;51842;47.450;8.654;2024-03-02T11:20:15;94217.00;;;10.31;84.69
44297;BME280;51842;47.450;8.654;2024-03-02T11:22:41;94207.91;;;10.46;84.79
44297;BME280;51842;47.450;8.654;2024-03-02T11:25:24;94213.34;;;10.69;82.23
44297;BME280;51842;47.450;8.654;2024-03-02T11:33:08;94204.06;;;11.16;81.75
44297;BME280;51842;47.450;8.654;2024-03-02T11:35:36;94201.84;;;11.54;78.31
44297;BME280;51842;47.450;8.654;2024-03-02T11:38:03;94206.72;;;11.84;77.17
44297;BME280;51842;47.450;8.654;2024-03-02T11:40:31;94191.50;;;11.84;74.94
44297;BME280;51842;47.450;8.654;2024-03-02T11:42:59;94192.13;;;12.03;77.80
44297;BME280;51842;47.450;8.654;2024-03-02T11:45:27;94196.72;;;12.20;79.04
44297;BME280;51842;47.450;8.654;2024-03-02T11:47:58;94191.59;;;12.33;76.86
44297;BME280;51842;47.450;8.654;2024-03-02T11:53:07;94183.56;;;12.90;72.55
44297;BME280;51842;47.450;8.654;2024-03-02T11:55:36;94182.53;;;13.26;72.88
44297;BME280;51842;47.450;8.654;2024-03-02T11:58:04;94183.13;;;13.49;70.48
44297;BME280;51842;47.450;8.654;2024-03-02T12:00:30;94175.41;;;13.47;69.73
44297;BME280;51842;47.450;8.654;2024-03-02T12:03:09;94175.09;;;13.31;70.00
44297;BME280;51842;47.450;8.654;2024-03-02T12:05:37;94162.47;;;13.75;70.24
44297;BME280;51842;47.450;8.654;2024-03-02T12:08:06;94161.41;;;14.15;65.53
44297;BME280;51842;47.450;8.654;2024-03-02T12:10:35;94167.75;;;14.40;66.82
44297;BME280;51842;47.450;8.654;2024-03-02T12:13:04;94160.97;;;14.51;65.82
44297;BME280;51842;47.450;8.654;2024-03-02T12:15:34;94164.06;;;14.62;63.76
44297;BME280;51842;47.450;8.654;2024-03-02T12:18:02;94161.78;;;14.72;66.06
44297;BME280;51842;47.450;8.654;2024-03-02T12:20:31;94161.50;;;14.65;63.25
44297;BME280;51842;47.450;8.654;2024-03-02T12:23:05;94153.50;;;14.86;62.32
44297;BME280;51842;47.450;8.654;2024-03-02T12:25:33;94145.34;;;14.83;64.55
44297;BME280;51842;47.450;8.654;2024-03-02T12:28:01;94136.44;;;14.91;62.52
44297;BME280;51842;47.450;8.654;2024-03-02T12:30:31;94134.88;;;14.90;63.71
44297;BME280;51842;47.450;8.654;2024-03-02T12:33:00;94125.28;;;14.59;64.94
44297;BME280;51842;47.450;8.654;2024-03-02T12:35:26;94123.94;;;14.74;63.19
44297;BME280;51842;47.450;8.654;2024-03-02T12:37:54;94124.28;;;14.93;63.06
44297;BME280;51842;47.450;8.654;2024-03-02T12:40:22;94122.31;;;15.02;62.95
44297;BME280;51842;47.450;8.654;2024-03-02T12:42:49;94113.09;;;15.12;62.50
44297;BME280;51842;47.450;8.654;2024-03-02T12:45:17;94113.44;;;15.11;62.02
44297;BME280;51842;47.450;8.654;2024-03-02T12:47:50;94104.84;;;15.17;61.89
44297;BME280;51842;47.450;8.654;2024-03-02T12:50:20;94105.28;;;15.19;61.13
44297;BME280;51842;47.450;8.654;2024-03-02T12:52:54;94105.69;;;15.30;60.43
44297;BME280;51842;47.450;8.654;2024-03-02T12:55:22;94091.03;;;15.27;59.65
44297;BME280;51842;47.450;8.654;2024-03-02T12:57:52;94095.97;;;15.04;60.75
44297;BME280;51842;47.450;8.654;2024-03-02T13:00:20;94092.00;;;15.23;57.92
44297;BME280;51842;47.450;8.654;2024-03-02T13:02:47;94087.50;;;15.36;57.49
44297;BME280;51842;47.450;8.654;2024-03-02T13:05:16;94087.59;;;15.39;59.11
44297;BME280;51842;47.450;8.654;2024-03-02T13:07:42;94084.03;;;15.47;57.27
44297;BME280;51842;47.450;8.654;2024-03-02T13:10:08;94089.53;;;15.84;59.00
44297;BME280;51842;47.450;8.654;2024-03-02T13:12:36;94081.69;;;15.91;56.82
44297;BME280;51842;47.450;8.654;2024-03-02T13:15:04;94069.25;;;15.41;56.91
44297;BME280;51842;47.450;8.654;2024-03-02T13:17:31;94071.72;;;15.34;57.24